createdAt,value
2017-10-21T00:04:57.580Z,15.77
2017-10-21T00:10:02.850Z,15.83
2017-10-21T00:15:08.478Z,15.67
2017-10-21T00:20:15.356Z,15.72
2017-10-21T00:25:21.851Z,15.58
2017-10-21T00:30:26.729Z,15.64
2017-10-21T00:35:29.900Z,15.67
2017-10-21T00:40:33.100Z,15.64
2017-10-21T00:45:38.994Z,15.59
2017-10-21T00:50:40.926Z,15.75
2017-10-21T00:55:42.967Z,15.53
2017-10-21T01:00:45.532Z,15.50
2017-10-21T01:05:47.643Z,15.49
2017-10-21T01:10:50.618Z,15.51
2017-10-21T01:15:53.625Z,15.46
2017-10-21T01:20:55.903Z,15.43
2017-10-21T01:25:57.921Z,15.23
2017-10-21T01:31:00.600Z,15.15
2017-10-21T01:36:02.600Z,15.11
2017-10-21T01:41:04.646Z,15.11
2017-10-21T01:46:07.418Z,15.26
2017-10-21T01:51:09.449Z,15.31
2017-10-21T01:56:11.448Z,15.37
2017-10-21T02:01:13.437Z,15.15
2017-10-21T02:06:15.465Z,14.98
2017-10-21T02:11:17.449Z,14.95
2017-10-21T02:16:19.469Z,14.77
2017-10-21T02:21:21.501Z,14.74
2017-10-21T02:26:24.256Z,14.67
2017-10-21T02:31:26.251Z,14.55
2017-10-21T02:36:30.808Z,14.53
2017-10-21T02:41:33.114Z,14.43
2017-10-21T02:46:35.099Z,14.38
2017-10-21T02:51:37.080Z,14.39
2017-10-21T02:56:39.034Z,14.38
2017-10-21T03:01:41.793Z,14.30
2017-10-21T03:06:43.697Z,14.33
2017-10-21T03:11:45.708Z,14.31
2017-10-21T03:16:47.640Z,14.25
2017-10-21T03:21:49.615Z,14.22
2017-10-21T03:26:51.582Z,14.12
2017-10-21T03:31:55.634Z,14.24
2017-10-21T03:36:57.862Z,14.34
2017-10-21T03:41:59.980Z,14.39
2017-10-21T03:47:03.448Z,14.53
2017-10-21T03:52:05.623Z,14.64
2017-10-21T03:57:07.634Z,14.65
2017-10-21T04:02:09.550Z,14.66
2017-10-21T04:07:11.827Z,14.72
2017-10-21T04:12:16.920Z,14.76
2017-10-21T04:17:20.032Z,14.86
2017-10-21T04:22:24.368Z,14.93
2017-10-21T04:27:28.850Z,14.97
2017-10-21T04:32:33.019Z,14.95
2017-10-21T04:37:35.093Z,14.98
2017-10-21T04:42:37.795Z,14.99
2017-10-21T04:47:39.674Z,15.06
2017-10-21T04:52:41.649Z,15.03
2017-10-21T04:57:43.624Z,14.92
2017-10-21T05:02:46.339Z,14.99
2017-10-21T05:07:48.225Z,15.02
2017-10-21T05:12:50.140Z,14.99
2017-10-21T05:17:52.107Z,14.99
2017-10-21T05:22:54.113Z,15.02
2017-10-21T05:27:56.033Z,15.03
2017-10-21T05:32:57.942Z,15.02
2017-10-21T05:37:59.844Z,15.02
2017-10-21T05:43:01.807Z,14.98
2017-10-21T05:48:03.756Z,15.03
2017-10-21T05:53:05.710Z,15.00
2017-10-21T05:58:07.664Z,14.93
2017-10-21T06:03:09.639Z,14.89
2017-10-21T06:08:11.604Z,14.91
2017-10-21T06:13:14.289Z,15.08
2017-10-21T06:18:16.263Z,15.00
2017-10-21T06:23:18.192Z,15.12
2017-10-21T06:28:20.117Z,15.14
2017-10-21T06:33:22.020Z,15.13
2017-10-21T06:38:23.974Z,15.14
2017-10-21T06:43:26.010Z,15.25
2017-10-21T06:48:27.926Z,15.27
2017-10-21T06:53:29.892Z,15.29
2017-10-21T06:58:31.800Z,15.38
2017-10-21T07:03:34.566Z,15.44
2017-10-21T07:08:37.379Z,15.50
2017-10-21T07:13:42.947Z,15.65
2017-10-21T07:18:45.685Z,15.67
2017-10-21T07:23:48.474Z,15.76
2017-10-21T07:28:51.466Z,15.81
2017-10-21T07:33:54.278Z,15.84
2017-10-21T07:38:57.263Z,15.80
2017-10-21T07:44:00.096Z,15.83
2017-10-21T07:49:02.828Z,15.90
2017-10-21T07:54:05.604Z,15.97
2017-10-21T07:59:07.578Z,16.15
2017-10-21T08:04:10.044Z,16.34
2017-10-21T08:09:12.361Z,16.53
2017-10-21T08:14:14.867Z,16.86
2017-10-21T08:19:21.144Z,16.82
2017-10-21T08:24:24.465Z,17.12
2017-10-21T08:29:26.352Z,17.17
2017-10-21T08:34:28.267Z,17.23
2017-10-21T08:39:30.208Z,17.29
2017-10-21T08:44:36.005Z,17.24
2017-10-21T08:49:37.952Z,17.12
2017-10-21T08:54:43.014Z,17.20
2017-10-21T08:59:44.949Z,17.27
2017-10-21T09:04:47.792Z,17.46
2017-10-21T09:09:50.652Z,17.46
2017-10-21T09:14:53.541Z,17.50
2017-10-21T09:19:56.322Z,17.57
2017-10-21T09:24:58.262Z,17.83
2017-10-21T09:30:00.205Z,17.98
2017-10-21T09:35:03.359Z,18.06
2017-10-21T09:40:07.761Z,18.15
2017-10-21T09:45:09.982Z,18.32
2017-10-21T09:50:14.345Z,18.44
2017-10-21T09:55:17.559Z,18.47
2017-10-21T10:00:19.474Z,18.39
2017-10-21T10:05:22.162Z,18.14
2017-10-21T10:10:26.417Z,17.91
2017-10-21T10:15:28.503Z,17.49
2017-10-21T10:20:30.478Z,17.29
2017-10-21T10:25:33.148Z,17.22
2017-10-21T10:30:35.102Z,17.26
2017-10-21T10:35:37.781Z,17.43
2017-10-21T10:40:39.739Z,17.58
2017-10-21T10:45:41.705Z,17.70
2017-10-21T10:50:43.661Z,17.84
2017-10-21T10:55:46.640Z,17.96
2017-10-21T11:00:48.562Z,18.25
2017-10-21T11:05:51.219Z,18.26
2017-10-21T11:10:53.156Z,18.33
2017-10-21T11:15:55.087Z,18.04
2017-10-21T11:20:57.032Z,17.60
2017-10-21T11:25:58.977Z,17.53
2017-10-21T11:31:00.912Z,17.31
2017-10-21T11:36:02.939Z,17.28
2017-10-21T11:41:04.845Z,17.13
2017-10-21T11:46:06.928Z,17.09
2017-10-21T11:51:08.915Z,16.99
2017-10-21T11:56:11.600Z,16.93
2017-10-21T12:01:13.514Z,17.01
2017-10-21T12:06:15.407Z,17.01
2017-10-21T12:11:17.329Z,16.89
2017-10-21T12:16:19.241Z,16.95
2017-10-21T12:21:21.204Z,16.96
2017-10-21T12:26:23.156Z,16.97
2017-10-21T12:31:25.807Z,16.91
2017-10-21T12:36:27.797Z,16.79
2017-10-21T12:41:29.703Z,16.78
2017-10-21T12:46:32.377Z,16.76
2017-10-21T12:51:34.279Z,16.89
2017-10-21T12:56:36.222Z,16.80
2017-10-21T13:01:38.913Z,16.70
2017-10-21T13:06:40.820Z,16.86
2017-10-21T13:11:42.710Z,17.02
2017-10-21T13:16:44.623Z,17.00
2017-10-21T13:21:46.539Z,16.90
2017-10-21T13:26:48.473Z,16.91
2017-10-21T13:31:50.397Z,17.06
2017-10-21T13:36:52.334Z,17.13
2017-10-21T13:41:54.272Z,17.37
2017-10-21T13:46:56.947Z,17.31
2017-10-21T13:51:58.884Z,17.31
2017-10-21T13:57:01.591Z,17.45
2017-10-21T14:02:03.579Z,17.86
2017-10-21T14:07:05.513Z,17.84
2017-10-21T14:12:07.479Z,18.02
2017-10-21T14:17:09.410Z,18.07
2017-10-21T14:22:11.342Z,18.10
2017-10-21T14:27:14.001Z,18.02
2017-10-21T14:32:15.911Z,18.02
2017-10-21T14:37:17.898Z,18.22
2017-10-21T14:42:19.901Z,18.40
2017-10-21T14:52:58.772Z,18.36
2017-10-21T14:58:00.707Z,18.21
2017-10-21T15:03:03.559Z,18.30
2017-10-21T15:08:05.673Z,18.39
2017-10-21T15:13:07.642Z,18.35
2017-10-21T15:18:09.711Z,18.64
2017-10-21T15:23:11.690Z,18.23
2017-10-21T15:28:13.629Z,18.01
2017-10-21T15:33:15.574Z,17.88
2017-10-21T15:38:17.507Z,17.79
2017-10-21T15:43:19.408Z,17.62
2017-10-21T15:48:21.304Z,17.68
2017-10-21T15:53:23.219Z,17.72
2017-10-21T15:58:25.138Z,17.69
2017-10-21T16:03:27.018Z,17.69
2017-10-21T16:08:30.053Z,17.75
2017-10-21T16:13:31.987Z,17.57
2017-10-21T16:18:33.939Z,17.44
2017-10-21T16:23:35.841Z,17.25
2017-10-21T16:28:37.775Z,17.28
2017-10-21T16:33:39.708Z,17.33
2017-10-21T16:38:41.692Z,17.35
2017-10-21T16:43:43.769Z,17.31
2017-10-21T16:48:45.720Z,17.35
2017-10-21T16:53:47.632Z,17.36
2017-10-21T16:58:50.289Z,17.43
2017-10-21T17:03:53.056Z,17.35
2017-10-21T17:08:55.858Z,17.37
2017-10-21T17:13:58.673Z,17.34
2017-10-21T17:19:01.457Z,17.33
2017-10-21T17:24:04.986Z,17.33
2017-10-21T17:29:07.836Z,17.32
2017-10-21T17:34:09.863Z,17.34
2017-10-21T17:39:13.156Z,17.31
2017-10-21T17:44:15.882Z,17.37
2017-10-21T17:49:18.544Z,17.29
2017-10-21T17:54:20.496Z,17.26
2017-10-21T17:59:22.709Z,17.29
2017-10-21T18:04:26.284Z,17.33
2017-10-21T18:09:28.638Z,17.30
2017-10-21T18:14:30.568Z,17.29
2017-10-21T18:19:34.011Z,17.35
2017-10-21T18:24:36.038Z,17.37
2017-10-21T18:29:38.029Z,17.35
2017-10-21T18:34:40.686Z,17.39
2017-10-21T18:39:42.634Z,17.32
2017-10-21T18:44:44.711Z,17.28
2017-10-21T18:49:46.634Z,17.27
2017-10-21T18:54:48.611Z,17.11
2017-10-21T18:59:51.307Z,16.95
2017-10-21T19:04:53.191Z,16.75
2017-10-21T19:09:55.878Z,16.61
2017-10-21T19:14:57.790Z,16.48
2017-10-21T19:19:59.693Z,16.41
2017-10-21T19:25:04.476Z,16.34
2017-10-21T19:30:06.521Z,16.34
2017-10-21T19:35:08.715Z,16.27
2017-10-21T19:40:12.115Z,16.21
2017-10-21T19:45:15.572Z,16.12
2017-10-21T19:50:17.724Z,16.08
2017-10-21T19:55:20.552Z,15.92
2017-10-21T20:00:23.286Z,15.82
2017-10-21T20:05:25.944Z,15.63
2017-10-21T20:10:28.552Z,15.52
2017-10-21T20:15:32.164Z,15.49
2017-10-21T20:20:34.061Z,15.51
2017-10-21T20:25:36.828Z,15.37
2017-10-21T20:30:39.649Z,15.41
2017-10-21T20:35:42.350Z,15.35
2017-10-21T20:40:45.045Z,15.41
2017-10-21T20:45:48.643Z,15.35
2017-10-21T20:50:51.235Z,15.28
2017-10-21T20:55:54.010Z,15.25
2017-10-21T21:00:56.849Z,15.19
2017-10-21T21:06:00.372Z,15.13
2017-10-21T21:11:03.150Z,15.12
2017-10-21T21:16:05.962Z,15.04
2017-10-21T21:21:08.691Z,15.09
2017-10-21T21:26:11.482Z,15.05
2017-10-21T21:31:15.224Z,15.05
2017-10-21T21:36:18.789Z,15.05
2017-10-21T21:41:20.767Z,15.02
2017-10-21T21:46:23.488Z,15.01
2017-10-21T21:51:25.468Z,15.09
2017-10-21T21:56:27.529Z,15.18
2017-10-21T22:01:29.505Z,15.20
2017-10-21T22:06:32.352Z,15.28
2017-10-21T22:11:35.209Z,15.28
2017-10-21T22:16:37.989Z,15.24
2017-10-21T22:21:41.481Z,15.04
2017-10-21T22:26:44.283Z,15.06
2017-10-21T22:31:46.992Z,15.02
2017-10-21T22:36:49.813Z,14.98
2017-10-21T22:41:52.570Z,14.93
2017-10-21T22:46:55.403Z,14.87
2017-10-21T22:51:58.168Z,14.82
2017-10-21T22:57:01.668Z,14.88
2017-10-21T23:02:04.493Z,14.91
2017-10-21T23:07:07.311Z,14.94
2017-10-21T23:12:10.109Z,14.87
2017-10-21T23:17:12.813Z,14.87
2017-10-21T23:22:16.363Z,14.89
2017-10-21T23:27:19.261Z,14.86
2017-10-21T23:32:21.636Z,14.76
2017-10-21T23:37:24.128Z,14.74
2017-10-21T23:42:26.041Z,14.69
2017-10-21T23:47:28.028Z,14.57
2017-10-21T23:52:29.952Z,14.50
2017-10-21T23:57:31.863Z,14.47
